Aviation Services » Terminal Aerodrome Forecasts Sunday, April 30, 2017
 Terminal Aerodrome Forecasts (TAF)

TAF AMD NVSC 301000Z 3012/0112 VRB02KT 9999 SCT016 BKN020 OVC100 
TEMPO 3012/3018 6000 TSRA SCT008 BKN018 FEW020CB OVC090=

TAF AMD NVSG 301000Z 3012/0112 VRB02KT 9999 SCT016 BKN020 OVC100
TEMPO 3012/3018 6000 TSRA SCT008 BKN018 FEW022CB OVC090=

TAF AMD NVSS 301000Z 3012/0112 VRB02KT 9999 SCT016 BKN020 OVC110
TEMPO 3012/3018 6000 TSRA SCT008 BKN018 FEW022CB OVC090=

TAF NVSL 301000Z 3012/0112 VRB02KT 9999 SCT016 BKN020 OVC110
TEMPO 3012/3018 7000 TSRA SCT008 BKN008 FEW022CB OVC090= 

TAF NVVV 301000Z 3012/0112 11006KT 9999 SCT016 BKN020 OVC110
INTER 3012/3018 7000 TSRA SCT008 BKN018 FEW020CB OVC070
BECMG 3012/3014 VRB02KT=

TAF NVVW 301000Z 3012/0112 15005KT 9999 SCT020 OVC100
INTER 3012/3018 8000 RA FEW010 BKN018 FEW025CB
BECMG 3012/3014 VRB02KT=

TAF NVVA 301000Z 3012/0112 16005KT 9999 SCT018 OVC100
INTER 3012/3018 8000 RA FEW010 BKN018 FEW025CB
BECMG 3012/3014 VRB02KT=